Flight Track Log - Related Links

Times and Time Zones

All times are in EST time to prevent confusion due to time zone crossing. See the SWA1004 flight status page for this flight to view local times or setup timezone preferences in your user account.

Time Position Orientation Groundspeed Altitude Reporting Facility
EST Latitude Longitude Course Direction KTS MPH feet Rate Location/Type
Sat 08:46:34 PM 33.6328 -84.4756 245° Southwest 437 503 3,000  Level Atlanta Center
Sat 08:47:34 PM 33.6033 -84.5500 245° Southwest 329 379 6,300 3,750 Climbing Atlanta Center
Sat 08:48:34 PM 33.5322 -84.5894 205° Southwest 289 333 10,500 3,400 Climbing Atlanta Center
Sat 08:49:34 PM 33.4633 -84.5442 151° Southeast 327 376 13,100 2,750 Climbing Atlanta Center
Sat 08:50:34 PM 33.4953 -84.4300 71° East 277 319 16,000 2,800 Climbing Atlanta Center
Sat 08:51:34 PM 33.5622 -84.3206 54° Northeast 323 372 18,700 2,500 Climbing Atlanta Center
Sat 08:52:34 PM 33.6250 -84.2183 54° Northeast 363 418 21,000 2,150 Climbing Atlanta Center
Sat 08:53:34 PM 33.7067 -84.0836 54° Northeast 413 475 23,000 1,000 Climbing Atlanta Center
Sat 08:54:34 PM 33.7817 -83.9614 54° Northeast 442 509 23,000 700 Level Atlanta Center
Sat 08:55:34 PM 33.8567 -83.8361 54° Northeast 453 521 24,400 1,700 Climbing Atlanta Center
Sat 08:56:34 PM 33.9336 -83.7058 55° Northeast 463 533 26,400 1,750 Climbing Atlanta Center
Sat 08:57:34 PM 34.0083 -83.5903 52° Northeast 477 549 27,900 1,650 Climbing Atlanta Center
Sat 08:58:34 PM 34.0956 -83.4492 53° Northeast 510 587 29,700 1,900 Climbing Atlanta Center
Sat 08:59:34 PM 34.1825 -83.3106 53° Northeast 517 595 31,700 1,200 Climbing Atlanta Center
Sat 09:00:34 PM 34.2711 -83.1664 53° Northeast 523 602 32,100 1,050 Climbing Atlanta Center
Sat 09:01:34 PM 34.3597 -83.0247 53° Northeast 529 609 33,800 1,450 Climbing Atlanta Center
Sat 09:02:34 PM 34.4483 -82.8800 53° Northeast 529 609 35,000 1,300 Climbing Atlanta Center
Sat 09:03:34 PM 34.5406 -82.7275 54° Northeast 542 624 36,400 1,250 Climbing Atlanta Center
Sat 09:04:34 PM 34.6225 -82.5925 54° Northeast 547 629 37,500 1,300 Climbing Atlanta Center
Sat 09:05:34 PM 34.7250 -82.4364 51° Northeast 547 629 39,000 750 Climbing Atlanta Center
Sat 09:06:34 PM 34.8147 -82.2881 54° Northeast 540 621 39,000  Level Atlanta Center
Sat 09:07:34 PM 34.9044 -82.1442 53° Northeast 535 616 39,000  Level Atlanta Center
Sat 09:08:34 PM 35.0019 -81.9822 54° Northeast 540 621 39,000  Level Atlanta Center
Sat 09:09:34 PM 35.0892 -81.8278 55° Northeast 540 621 39,000  Level Atlanta Center
Sat 09:10:34 PM 35.1697 -81.6708 58° Northeast 545 627 39,000  Level Atlanta Center
Sat 09:11:34 PM 35.2542 -81.5131 57° Northeast 545 627 39,000  Level Atlanta Center
Sat 09:12:34 PM 35.3361 -81.3503 58° Northeast 556 640 39,000  Level Atlanta Center
Sat 09:13:34 PM 35.4181 -81.1897 58° Northeast 556 640 39,000  Level Atlanta Center
Sat 09:14:34 PM 35.4939 -81.0467 57° Northeast 556 640 39,000  Level Atlanta Center
Sat 09:15:34 PM 35.5778 -80.8878 57° Northeast 556 640 39,000  Level Atlanta Center
Sat 09:16:34 PM 35.6611 -80.7261 58° Northeast 556 640 39,000 -804 Level Atlanta Center
Sat 09:19:03 PM 35.8594 -80.3411 57° Northeast 550 633 36,200 -2,319 Descending Washington Center
Sat 09:20:01 PM 35.9386 -80.1842 58° Northeast 545 627 31,000 -2,250 Descending Washington Center
Sat 09:21:03 PM 36.0261 -80.0172 57° Northeast 533 613 31,700  Climbing Washington Center
Sat 09:22:03 PM 36.1067 -79.8725 55° Northeast 521 600 31,000 -356 Descending Washington Center
Sat 09:23:01 PM 36.1800 -79.7428 55° Northeast 514 592 31,000  Level Washington Center
Sat 09:24:02 PM 36.2667 -79.5878 55° Northeast 506 582 31,000  Level Washington Center
Sat 09:25:03 PM 36.3400 -79.4572 55° Northeast 506 582 31,000  Level Washington Center
Sat 09:26:02 PM 36.4197 -79.3114 56° Northeast 506 582 31,000  Level Washington Center
Sat 09:27:01 PM 36.5011 -79.1681 55° Northeast 506 582 31,000 -992 Level Washington Center
Sat 09:28:03 PM 36.5914 -79.0119 54° Northeast 506 582 29,000 -2,083 Descending Washington Center
Sat 09:29:02 PM 36.6550 -78.8956 56° Northeast 506 582 26,800 -2,000 Descending Washington Center
Sat 09:30:03 PM 36.7431 -78.7283 57° Northeast 494 568 25,000 -893 Descending Washington Center
Sat 09:31:03 PM 36.8131 -78.6014 55° Northeast 463 533 25,000  Level Washington Center
Sat 09:32:02 PM 36.8869 -78.4822 52° Northeast 447 514 25,000  Level Washington Center
Sat 09:33:02 PM 36.9744 -78.4022 36° Northeast 422 486 25,000  Level Washington Center
Sat 09:34:03 PM 37.0703 -78.3119 37° Northeast 422 486 25,000  Level Washington Center
Sat 09:35:01 PM 37.1661 -78.2242 36° Northeast 422 486 25,000  Level Washington Center
Sat 09:36:01 PM 37.2706 -78.1286 36° Northeast 422 486 25,000  Level Washington Center
Sat 09:37:00 PM 37.3661 -78.0378 37° Northeast 422 486 25,000  Level Washington Center
Sat 09:38:01 PM 37.4597 -77.9492 37° Northeast 422 486 25,000  Level Washington Center
Sat 09:39:01 PM 37.5553 -77.8606 36° Northeast 422 486 25,000  Level Washington Center
Sat 09:40:01 PM 37.6486 -77.7714 37° Northeast 422 486 25,000 -1,091 Level Washington Center
Sat 09:41:02 PM 37.7422 -77.6822 37° Northeast 422 486 22,800 -2,250 Descending Washington Center
Sat 09:42:01 PM 37.8333 -77.5928 38° Northeast 417 480 20,500 -2,281 Descending Washington Center
Sat 09:43:03 PM 37.9244 -77.5108 35° Northeast 417 480 18,200 -2,164 Descending Washington Center
Sat 09:44:03 PM 38.0111 -77.4286 37° Northeast 405 466 16,100 -2,034 Descending Washington Center
Sat 09:45:01 PM 38.0894 -77.3514 38° Northeast 377 434 14,200 -1,966 Descending Washington Center
Sat 09:46:02 PM 38.1719 -77.2742 36° Northeast 370 426 12,200 -1,934 Descending Washington Center
Sat 09:47:02 PM 38.2481 -77.2019 37° Northeast 354 407 10,300 -1,322 Descending Washington Center
Sat 09:48:00 PM 38.3236 -77.1481 29° Northeast 332 382 9,600 -1,041 Descending Washington Center
Sat 09:49:03 PM 38.3992 -77.1256 13° North 293 337 8,200 -1,785 Descending Washington Center
Sat 09:50:01 PM 38.4725 -77.0981 16° North 287 330 6,000 -2,017 Descending Washington Center
Sat 09:51:02 PM 38.5456 -77.0728 15° North 282 325 4,200 -1,400 Descending Washington Center
Sat 09:52:01 PM 38.6147 -77.0478 16° North 270 311 3,200 -756 Descending Washington Center
Sat 09:53:17 PM 38.6833 -77.0167 19° North 186 214 2,500 -441 Descending Potomac TRACON
Sat 09:54:17 PM 38.7333 -77.0333 345° North 163 188 2,200 -579 Descending Potomac TRACON
Sat 09:55:11 PM 38.7667 -77.0333 360° North 168 193 1,400 -842 Descending Potomac TRACON
Sat 09:56:11 PM 38.8167 -77.0333 360° North 132 152 600 -800 Descending Potomac TRACON
Sat 09:58:00 PM 38.8500 -77.0333 North  Level FlightAware Approximate
Sat 10:05:00 PM 38.8519 -77.0377 North  Level Estimated

Login

Don't have an account? Register now (free) for customized features, flight alerts, and more!